sensor_id;sensor_type;location;lat;lon;timestamp;temperature;humidity
45945;DHT22;31655;48.972;10.686;2022-07-23T00:00:50;21.60;92.00
45945;DHT22;31655;48.972;10.686;2022-07-23T00:03:16;21.50;92.40
45945;DHT22;31655;48.972;10.686;2022-07-23T00:05:41;21.50;92.80
45945;DHT22;31655;48.972;10.686;2022-07-23T00:08:08;21.50;93.10
45945;DHT22;31655;48.972;10.686;2022-07-23T00:10:34;21.50;93.30
45945;DHT22;31655;48.972;10.686;2022-07-23T00:13:00;21.50;94.20
45945;DHT22;31655;48.972;10.686;2022-07-23T00:15:25;21.50;94.40
45945;DHT22;31655;48.972;10.686;2022-07-23T00:17:51;21.50;95.60
45945;DHT22;31655;48.972;10.686;2022-07-23T00:20:18;21.50;96.60
45945;DHT22;31655;48.972;10.686;2022-07-23T00:22:48;21.50;97.20
45945;DHT22;31655;48.972;10.686;2022-07-23T00:25:14;21.50;97.90
45945;DHT22;31655;48.972;10.686;2022-07-23T00:27:39;21.50;98.10
45945;DHT22;31655;48.972;10.686;2022-07-23T00:30:06;21.50;98.60
45945;DHT22;31655;48.972;10.686;2022-07-23T00:32:31;21.50;99.00
45945;DHT22;31655;48.972;10.686;2022-07-23T00:34:57;21.50;99.90
45945;DHT22;31655;48.972;10.686;2022-07-23T00:37:23;21.50;99.90
45945;DHT22;31655;48.972;10.686;2022-07-23T00:39:48;21.50;99.90
45945;DHT22;31655;48.972;10.686;2022-07-23T00:42:14;21.40;99.90
45945;DHT22;31655;48.972;10.686;2022-07-23T00:44:39;21.30;99.90
45945;DHT22;31655;48.972;10.686;2022-07-23T00:47:05;21.30;99.90
45945;DHT22;31655;48.972;10.686;2022-07-23T00:49:31;21.20;99.90
45945;DHT22;31655;48.972;10.686;2022-07-23T00:51:57;21.30;99.90
45945;DHT22;31655;48.972;10.686;2022-07-23T00:54:27;21.20;99.90
45945;DHT22;31655;48.972;10.686;2022-07-23T00:56:53;21.20;99.90
45945;DHT22;31655;48.972;10.686;2022-07-23T00:59:19;21.10;99.90
45945;DHT22;31655;48.972;10.686;2022-07-23T01:01:45;21.20;99.90
45945;DHT22;31655;48.972;10.686;2022-07-23T01:04:14;21.10;99.90
45945;DHT22;31655;48.972;10.686;2022-07-23T01:06:40;21.20;99.90
45945;DHT22;31655;48.972;10.686;2022-07-23T01:09:07;21.10;99.90
45945;DHT22;31655;48.972;10.686;2022-07-23T01:11:36;20.90;99.90
45945;DHT22;31655;48.972;10.686;2022-07-23T01:14:31;21.10;99.90
45945;DHT22;31655;48.972;10.686;2022-07-23T01:16:57;21.10;99.90
45945;DHT22;31655;48.972;10.686;2022-07-23T01:19:23;21.10;99.90
45945;DHT22;31655;48.972;10.686;2022-07-23T01:21:50;21.00;99.90
45945;DHT22;31655;48.972;10.686;2022-07-23T01:24:17;21.10;99.90
45945;DHT22;31655;48.972;10.686;2022-07-23T01:26:45;21.10;99.90
45945;DHT22;31655;48.972;10.686;2022-07-23T01:29:11;20.90;99.90
45945;DHT22;31655;48.972;10.686;2022-07-23T01:31:37;21.00;99.90
45945;DHT22;31655;48.972;10.686;2022-07-23T01:34:03;21.00;99.90
45945;DHT22;31655;48.972;10.686;2022-07-23T01:36:29;21.00;99.90
45945;DHT22;31655;48.972;10.686;2022-07-23T01:38:55;21.00;99.90
45945;DHT22;31655;48.972;10.686;2022-07-23T01:41:21;21.00;99.90
45945;DHT22;31655;48.972;10.686;2022-07-23T01:43:46;21.10;99.90
45945;DHT22;31655;48.972;10.686;2022-07-23T01:46:12;21.10;99.90
45945;DHT22;31655;48.972;10.686;2022-07-23T01:48:37;21.20;99.90
45945;DHT22;31655;48.972;10.686;2022-07-23T01:51:03;21.30;99.90
45945;DHT22;31655;48.972;10.686;2022-07-23T01:53:29;21.30;99.90
45945;DHT22;31655;48.972;10.686;2022-07-23T01:55:57;21.30;99.90
45945;DHT22;31655;48.972;10.686;2022-07-23T01:58:22;21.30;99.90
45945;DHT22;31655;48.972;10.686;2022-07-23T02:00:48;21.40;99.90
45945;DHT22;31655;48.972;10.686;2022-07-23T02:03:13;21.30;99.90
45945;DHT22;31655;48.972;10.686;2022-07-23T02:05:39;21.40;99.90
45945;DHT22;31655;48.972;10.686;2022-07-23T02:08:05;21.40;99.90
45945;DHT22;31655;48.972;10.686;2022-07-23T02:10:30;21.40;99.90
45945;DHT22;31655;48.972;10.686;2022-07-23T02:12:56;21.60;99.90
45945;DHT22;31655;48.972;10.686;2022-07-23T02:15:21;21.30;99.90
45945;DHT22;31655;48.972;10.686;2022-07-23T02:17:47;21.40;99.90
45945;DHT22;31655;48.972;10.686;2022-07-23T02:20:13;21.40;99.90
45945;DHT22;31655;48.972;10.686;2022-07-23T02:22:38;21.40;99.90
45945;DHT22;31655;48.972;10.686;2022-07-23T02:25:08;21.40;99.90
45945;DHT22;31655;48.972;10.686;2022-07-23T02:27:35;21.30;99.90
45945;DHT22;31655;48.972;10.686;2022-07-23T02:30:00;21.30;99.90
45945;DHT22;31655;48.972;10.686;2022-07-23T02:32:26;21.20;99.90
45945;DHT22;31655;48.972;10.686;2022-07-23T02:34:52;21.20;99.90
45945;DHT22;31655;48.972;10.686;2022-07-23T02:37:17;21.60;99.90
45945;DHT22;31655;48.972;10.686;2022-07-23T02:39:43;21.20;99.90
45945;DHT22;31655;48.972;10.686;2022-07-23T02:42:09;21.20;99.90
45945;DHT22;31655;48.972;10.686;2022-07-23T02:44:35;21.10;99.90
45945;DHT22;31655;48.972;10.686;2022-07-23T02:47:00;21.10;99.90
45945;DHT22;31655;48.972;10.686;2022-07-23T02:49:26;21.10;99.90
45945;DHT22;31655;48.972;10.686;2022-07-23T02:51:52;21.10;99.90
45945;DHT22;31655;48.972;10.686;2022-07-23T02:54:18;21.10;99.90
45945;DHT22;31655;48.972;10.686;2022-07-23T02:56:43;21.10;99.90
45945;DHT22;31655;48.972;10.686;2022-07-23T02:59:09;21.10;99.90
45945;DHT22;31655;48.972;10.686;2022-07-23T03:01:35;21.10;99.90
45945;DHT22;31655;48.972;10.686;2022-07-23T03:04:01;24.10;99.90
45945;DHT22;31655;48.972;10.686;2022-07-23T03:06:26;21.10;99.90
45945;DHT22;31655;48.972;10.686;2022-07-23T03:08:52;21.10;99.90
45945;DHT22;31655;48.972;10.686;2022-07-23T03:11:17;21.10;99.90
45945;DHT22;31655;48.972;10.686;2022-07-23T03:13:43;21.20;99.90
45945;DHT22;31655;48.972;10.686;2022-07-23T03:16:09;21.20;99.90
45945;DHT22;31655;48.972;10.686;2022-07-23T03:18:34;21.10;99.90
45945;DHT22;31655;48.972;10.686;2022-07-23T03:21:00;21.10;99.90
45945;DHT22;31655;48.972;10.686;2022-07-23T03:23:26;21.10;99.90
45945;DHT22;31655;48.972;10.686;2022-07-23T03:25:52;21.10;99.90
45945;DHT22;31655;48.972;10.686;2022-07-23T03:28:18;20.90;99.90
45945;DHT22;31655;48.972;10.686;2022-07-23T03:30:45;20.90;99.90
45945;DHT22;31655;48.972;10.686;2022-07-23T03:33:15;20.70;99.90
45945;DHT22;31655;48.972;10.686;2022-07-23T03:35:45;20.60;99.90
45945;DHT22;31655;48.972;10.686;2022-07-23T03:38:11;20.50;99.90
45945;DHT22;31655;48.972;10.686;2022-07-23T03:40:36;20.30;99.90
45945;DHT22;31655;48.972;10.686;2022-07-23T03:43:02;20.30;99.90
45945;DHT22;31655;48.972;10.686;2022-07-23T03:45:28;20.20;99.90
45945;DHT22;31655;48.972;10.686;2022-07-23T03:47:53;20.00;99.90
45945;DHT22;31655;48.972;10.686;2022-07-23T03:50:20;19.90;99.90
45945;DHT22;31655;48.972;10.686;2022-07-23T03:52:45;20.00;99.90
45945;DHT22;31655;48.972;10.686;2022-07-23T03:55:11;19.90;99.90
45945;DHT22;31655;48.972;10.686;2022-07-23T03:57:37;19.90;99.90
45945;DHT22;31655;48.972;10.686;2022-07-23T04:00:04;19.80;99.90
45945;DHT22;31655;48.972;10.686;2022-07-23T04:02:30;19.70;99.90
45945;DHT22;31655;48.972;10.686;2022-07-23T04:04:56;19.70;99.90
45945;DHT22;31655;48.972;10.686;2022-07-23T04:07:21;22.20;99.90
45945;DHT22;31655;48.972;10.686;2022-07-23T04:09:48;19.70;99.90
45945;DHT22;31655;48.972;10.686;2022-07-23T04:12:14;19.60;99.90
45945;DHT22;31655;48.972;10.686;2022-07-23T04:14:40;19.70;99.90
45945;DHT22;31655;48.972;10.686;2022-07-23T04:17:06;19.60;99.90
45945;DHT22;31655;48.972;10.686;2022-07-23T04:19:31;19.70;99.90
45945;DHT22;31655;48.972;10.686;2022-07-23T04:21:57;20.30;99.90
45945;DHT22;31655;48.972;10.686;2022-07-23T04:24:23;19.60;99.90
45945;DHT22;31655;48.972;10.686;2022-07-23T04:26:48;22.00;99.90
45945;DHT22;31655;48.972;10.686;2022-07-23T04:29:14;19.80;99.90
45945;DHT22;31655;48.972;10.686;2022-07-23T04:31:39;19.90;99.90
45945;DHT22;31655;48.972;10.686;2022-07-23T04:34:05;19.80;99.90
45945;DHT22;31655;48.972;10.686;2022-07-23T04:36:31;19.90;99.90
45945;DHT22;31655;48.972;10.686;2022-07-23T04:38:56;19.90;99.90
45945;DHT22;31655;48.972;10.686;2022-07-23T04:41:22;19.90;99.90
45945;DHT22;31655;48.972;10.686;2022-07-23T04:43:47;19.90;99.90
45945;DHT22;31655;48.972;10.686;2022-07-23T04:46:13;19.80;99.90
45945;DHT22;31655;48.972;10.686;2022-07-23T04:48:39;20.20;99.90
45945;DHT22;31655;48.972;10.686;2022-07-23T04:51:05;19.80;99.90
45945;DHT22;31655;48.972;10.686;2022-07-23T04:53:31;19.80;99.90
45945;DHT22;31655;48.972;10.686;2022-07-23T04:55:56;19.80;99.90
45945;DHT22;31655;48.972;10.686;2022-07-23T04:58:22;20.10;99.90
45945;DHT22;31655;48.972;10.686;2022-07-23T05:03:14;20.30;99.90
45945;DHT22;31655;48.972;10.686;2022-07-23T05:05:40;20.50;99.90
45945;DHT22;31655;48.972;10.686;2022-07-23T05:08:05;20.70;99.90
45945;DHT22;31655;48.972;10.686;2022-07-23T05:10:31;21.20;99.90
45945;DHT22;31655;48.972;10.686;2022-07-23T05:12:57;21.70;99.90
45945;DHT22;31655;48.972;10.686;2022-07-23T05:15:23;22.10;99.90
45945;DHT22;31655;48.972;10.686;2022-07-23T05:17:48;22.50;99.90
45945;DHT22;31655;48.972;10.686;2022-07-23T05:20:14;24.40;99.90
45945;DHT22;31655;48.972;10.686;2022-07-23T05:22:40;23.10;99.90
45945;DHT22;31655;48.972;10.686;2022-07-23T05:25:06;23.50;99.90
45945;DHT22;31655;48.972;10.686;2022-07-23T05:27:31;24.00;99.90
45945;DHT22;31655;48.972;10.686;2022-07-23T05:29:57;24.60;99.90
45945;DHT22;31655;48.972;10.686;2022-07-23T05:32:23;25.00;99.90
45945;DHT22;31655;48.972;10.686;2022-07-23T05:34:49;25.00;99.90
45945;DHT22;31655;48.972;10.686;2022-07-23T05:37:14;25.00;99.90
45945;DHT22;31655;48.972;10.686;2022-07-23T05:39:40;25.50;99.90
45945;DHT22;31655;48.972;10.686;2022-07-23T05:42:05;25.90;99.90
45945;DHT22;31655;48.972;10.686;2022-07-23T05:44:31;27.00;99.90
45945;DHT22;31655;48.972;10.686;2022-07-23T05:46:56;28.00;99.90
45945;DHT22;31655;48.972;10.686;2022-07-23T05:49:22;28.30;99.10
45945;DHT22;31655;48.972;10.686;2022-07-23T05:51:48;28.00;97.70
45945;DHT22;31655;48.972;10.686;2022-07-23T05:54:13;28.40;96.10
45945;DHT22;31655;48.972;10.686;2022-07-23T05:56:39;28.80;94.40
45945;DHT22;31655;48.972;10.686;2022-07-23T05:59:05;29.10;92.70
45945;DHT22;31655;48.972;10.686;2022-07-23T06:01:31;29.10;92.90
45945;DHT22;31655;48.972;10.686;2022-07-23T06:03:57;29.10;92.40
45945;DHT22;31655;48.972;10.686;2022-07-23T06:06:22;29.30;91.20
45945;DHT22;31655;48.972;10.686;2022-07-23T06:08:48;29.00;90.90
45945;DHT22;31655;48.972;10.686;2022-07-23T06:11:13;29.50;90.00
45945;DHT22;31655;48.972;10.686;2022-07-23T06:13:39;29.50;88.60
45945;DHT22;31655;48.972;10.686;2022-07-23T06:16:04;30.10;85.90
45945;DHT22;31655;48.972;10.686;2022-07-23T06:18:30;30.40;84.70
45945;DHT22;31655;48.972;10.686;2022-07-23T06:20:55;30.40;82.80
45945;DHT22;31655;48.972;10.686;2022-07-23T06:23:21;30.90;80.30
45945;DHT22;31655;48.972;10.686;2022-07-23T06:25:47;30.30;81.10
45945;DHT22;31655;48.972;10.686;2022-07-23T06:28:12;29.30;83.80
45945;DHT22;31655;48.972;10.686;2022-07-23T06:30:38;28.80;84.20
45945;DHT22;31655;48.972;10.686;2022-07-23T06:33:03;28.20;86.00
45945;DHT22;31655;48.972;10.686;2022-07-23T06:35:29;28.00;87.40
45945;DHT22;31655;48.972;10.686;2022-07-23T06:37:54;27.60;88.10
45945;DHT22;31655;48.972;10.686;2022-07-23T06:40:20;27.30;89.60
45945;DHT22;31655;48.972;10.686;2022-07-23T06:42:46;26.90;90.70
45945;DHT22;31655;48.972;10.686;2022-07-23T06:45:12;26.90;90.80
45945;DHT22;31655;48.972;10.686;2022-07-23T06:47:37;26.80;91.50
45945;DHT22;31655;48.972;10.686;2022-07-23T06:50:03;26.50;92.10
45945;DHT22;31655;48.972;10.686;2022-07-23T06:52:29;26.10;92.40
45945;DHT22;31655;48.972;10.686;2022-07-23T06:54:55;26.00;92.80
45945;DHT22;31655;48.972;10.686;2022-07-23T06:57:20;26.20;93.80
45945;DHT22;31655;48.972;10.686;2022-07-23T06:59:46;25.90;94.00
45945;DHT22;31655;48.972;10.686;2022-07-23T07:02:11;26.10;94.70
45945;DHT22;31655;48.972;10.686;2022-07-23T07:04:37;26.40;94.40
45945;DHT22;31655;48.972;10.686;2022-07-23T07:07:03;26.40;94.50
45945;DHT22;31655;48.972;10.686;2022-07-23T07:09:28;26.70;94.20
45945;DHT22;31655;48.972;10.686;2022-07-23T07:11:54;27.20;94.00
45945;DHT22;31655;48.972;10.686;2022-07-23T07:14:20;29.50;92.70
45945;DHT22;31655;48.972;10.686;2022-07-23T07:16:46;29.60;90.00
45945;DHT22;31655;48.972;10.686;2022-07-23T07:19:11;30.70;85.40
45945;DHT22;31655;48.972;10.686;2022-07-23T07:21:37;31.50;82.30
45945;DHT22;31655;48.972;10.686;2022-07-23T07:24:03;32.30;77.10
45945;DHT22;31655;48.972;10.686;2022-07-23T07:26:29;32.70;74.60
45945;DHT22;31655;48.972;10.686;2022-07-23T07:28:56;32.40;72.70
45945;DHT22;31655;48.972;10.686;2022-07-23T07:31:21;32.30;72.40
45945;DHT22;31655;48.972;10.686;2022-07-23T07:33:47;32.70;72.00
45945;DHT22;31655;48.972;10.686;2022-07-23T07:36:13;33.20;69.80
45945;DHT22;31655;48.972;10.686;2022-07-23T07:38:38;33.10;68.30
45945;DHT22;31655;48.972;10.686;2022-07-23T07:41:04;33.40;66.00
45945;DHT22;31655;48.972;10.686;2022-07-23T07:43:30;32.60;67.40
45945;DHT22;31655;48.972;10.686;2022-07-23T07:45:55;32.20;69.80
45945;DHT22;31655;48.972;10.686;2022-07-23T07:48:21;32.40;68.50
45945;DHT22;31655;48.972;10.686;2022-07-23T07:50:46;32.90;67.70
45945;DHT22;31655;48.972;10.686;2022-07-23T07:53:12;33.70;66.40
45945;DHT22;31655;48.972;10.686;2022-07-23T07:55:37;35.30;62.90
45945;DHT22;31655;48.972;10.686;2022-07-23T07:58:03;36.00;60.10
45945;DHT22;31655;48.972;10.686;2022-07-23T08:00:29;36.20;58.30
45945;DHT22;31655;48.972;10.686;2022-07-23T08:02:55;36.10;57.80
45945;DHT22;31655;48.972;10.686;2022-07-23T08:05:26;35.80;57.90
45945;DHT22;31655;48.972;10.686;2022-07-23T08:07:52;36.00;58.40
45945;DHT22;31655;48.972;10.686;2022-07-23T08:10:19;35.90;58.20
45945;DHT22;31655;48.972;10.686;2022-07-23T08:12:47;34.90;58.10
45945;DHT22;31655;48.972;10.686;2022-07-23T08:15:15;34.90;58.70
45945;DHT22;31655;48.972;10.686;2022-07-23T08:17:42;35.90;57.20
45945;DHT22;31655;48.972;10.686;2022-07-23T08:20:09;35.70;57.20
45945;DHT22;31655;48.972;10.686;2022-07-23T08:25:09;36.40;56.10
45945;DHT22;31655;48.972;10.686;2022-07-23T08:27:34;36.70;55.70
45945;DHT22;31655;48.972;10.686;2022-07-23T08:30:00;36.50;56.20
45945;DHT22;31655;48.972;10.686;2022-07-23T08:32:25;36.20;55.00
45945;DHT22;31655;48.972;10.686;2022-07-23T08:34:51;35.60;56.50
45945;DHT22;31655;48.972;10.686;2022-07-23T08:37:16;35.20;56.20
45945;DHT22;31655;48.972;10.686;2022-07-23T08:39:42;35.40;56.60
45945;DHT22;31655;48.972;10.686;2022-07-23T08:42:08;35.60;55.80
45945;DHT22;31655;48.972;10.686;2022-07-23T08:44:35;35.60;55.70
45945;DHT22;31655;48.972;10.686;2022-07-23T08:47:01;35.90;56.40
45945;DHT22;31655;48.972;10.686;2022-07-23T08:49:28;36.10;54.90
45945;DHT22;31655;48.972;10.686;2022-07-23T08:51:55;36.00;54.60
45945;DHT22;31655;48.972;10.686;2022-07-23T08:54:21;36.00;54.10
45945;DHT22;31655;48.972;10.686;2022-07-23T08:56:48;35.60;54.90
45945;DHT22;31655;48.972;10.686;2022-07-23T08:59:13;35.40;54.40
45945;DHT22;31655;48.972;10.686;2022-07-23T09:01:39;35.00;55.60
45945;DHT22;31655;48.972;10.686;2022-07-23T09:04:05;34.80;55.30
45945;DHT22;31655;48.972;10.686;2022-07-23T09:06:31;35.00;55.20
45945;DHT22;31655;48.972;10.686;2022-07-23T09:08:56;34.10;55.70
45945;DHT22;31655;48.972;10.686;2022-07-23T09:11:22;33.60;57.10
45945;DHT22;31655;48.972;10.686;2022-07-23T09:13:52;32.70;57.20
45945;DHT22;31655;48.972;10.686;2022-07-23T09:16:23;32.20;58.30
45945;DHT22;31655;48.972;10.686;2022-07-23T09:21:34;31.90;60.50
45945;DHT22;31655;48.972;10.686;2022-07-23T09:24:10;31.30;62.20
45945;DHT22;31655;48.972;10.686;2022-07-23T09:26:47;30.90;62.80
45945;DHT22;31655;48.972;10.686;2022-07-23T09:29:19;30.90;63.00
45945;DHT22;31655;48.972;10.686;2022-07-23T09:32:00;30.90;62.30
45945;DHT22;31655;48.972;10.686;2022-07-23T09:37:15;30.90;60.10
45945;DHT22;31655;48.972;10.686;2022-07-23T09:39:43;30.20;62.10
45945;DHT22;31655;48.972;10.686;2022-07-23T09:44:42;29.00;64.20
45945;DHT22;31655;48.972;10.686;2022-07-23T09:47:07;28.90;64.20
45945;DHT22;31655;48.972;10.686;2022-07-23T09:49:33;29.00;64.10
45945;DHT22;31655;48.972;10.686;2022-07-23T09:51:59;29.20;65.00
45945;DHT22;31655;48.972;10.686;2022-07-23T09:54:36;29.40;64.80
45945;DHT22;31655;48.972;10.686;2022-07-23T09:57:10;29.40;63.70
45945;DHT22;31655;48.972;10.686;2022-07-23T09:59:44;29.80;62.40
45945;DHT22;31655;48.972;10.686;2022-07-23T10:02:12;30.00;62.00
45945;DHT22;31655;48.972;10.686;2022-07-23T10:04:39;30.20;62.10
45945;DHT22;31655;48.972;10.686;2022-07-23T10:07:06;30.00;61.90
45945;DHT22;31655;48.972;10.686;2022-07-23T10:09:36;29.70;63.00
45945;DHT22;31655;48.972;10.686;2022-07-23T10:12:13;29.50;62.30
45945;DHT22;31655;48.972;10.686;2022-07-23T10:14:53;29.50;62.50
45945;DHT22;31655;48.972;10.686;2022-07-23T10:17:19;29.60;63.90
45945;DHT22;31655;48.972;10.686;2022-07-23T10:19:45;29.80;61.50
45945;DHT22;31655;48.972;10.686;2022-07-23T10:22:25;29.80;62.50
45945;DHT22;31655;48.972;10.686;2022-07-23T10:27:51;30.80;60.80
45945;DHT22;31655;48.972;10.686;2022-07-23T10:31:00;31.80;59.00
45945;DHT22;31655;48.972;10.686;2022-07-23T10:36:32;32.70;57.00
45945;DHT22;31655;48.972;10.686;2022-07-23T10:39:26;32.70;57.90
45945;DHT22;31655;48.972;10.686;2022-07-23T10:42:17;32.80;56.80
45945;DHT22;31655;48.972;10.686;2022-07-23T10:44:48;33.00;56.50
45945;DHT22;31655;48.972;10.686;2022-07-23T10:47:40;32.50;56.80
45945;DHT22;31655;48.972;10.686;2022-07-23T10:50:29;32.00;57.40
45945;DHT22;31655;48.972;10.686;2022-07-23T10:58:01;31.50;58.60
45945;DHT22;31655;48.972;10.686;2022-07-23T11:00:29;30.90;58.40
45945;DHT22;31655;48.972;10.686;2022-07-23T11:03:00;30.90;59.10
45945;DHT22;31655;48.972;10.686;2022-07-23T11:05:40;30.90;59.40
45945;DHT22;31655;48.972;10.686;2022-07-23T11:13:31;31.80;59.20
45945;DHT22;31655;48.972;10.686;2022-07-23T11:16:18;32.00;59.30
45945;DHT22;31655;48.972;10.686;2022-07-23T11:24:02;31.50;58.50
45945;DHT22;31655;48.972;10.686;2022-07-23T11:34:48;30.70;60.10
45945;DHT22;31655;48.972;10.686;2022-07-23T11:37:39;30.80;60.70
45945;DHT22;31655;48.972;10.686;2022-07-23T11:40:11;30.90;61.10
45945;DHT22;31655;48.972;10.686;2022-07-23T11:42:38;31.00;61.20
45945;DHT22;31655;48.972;10.686;2022-07-23T11:45:06;30.60;62.10
45945;DHT22;31655;48.972;10.686;2022-07-23T11:47:33;30.50;62.00
45945;DHT22;31655;48.972;10.686;2022-07-23T11:50:02;30.30;62.50
45945;DHT22;31655;48.972;10.686;2022-07-23T11:52:28;30.10;62.90
45945;DHT22;31655;48.972;10.686;2022-07-23T11:55:01;29.90;63.90
45945;DHT22;31655;48.972;10.686;2022-07-23T11:57:30;30.20;62.80
45945;DHT22;31655;48.972;10.686;2022-07-23T12:00:06;30.70;61.70
45945;DHT22;31655;48.972;10.686;2022-07-23T12:02:32;30.60;61.10
45945;DHT22;31655;48.972;10.686;2022-07-23T12:04:58;30.20;61.10
45945;DHT22;31655;48.972;10.686;2022-07-23T12:09:54;30.50;61.70
45945;DHT22;31655;48.972;10.686;2022-07-23T12:12:21;30.60;61.10
45945;DHT22;31655;48.972;10.686;2022-07-23T12:14:55;30.40;61.70
45945;DHT22;31655;48.972;10.686;2022-07-23T12:17:27;30.00;63.60
45945;DHT22;31655;48.972;10.686;2022-07-23T12:19:54;30.10;63.10
45945;DHT22;31655;48.972;10.686;2022-07-23T12:22:21;30.60;62.20
45945;DHT22;31655;48.972;10.686;2022-07-23T12:24:59;30.80;61.10
45945;DHT22;31655;48.972;10.686;2022-07-23T12:27:25;31.00;61.40
45945;DHT22;31655;48.972;10.686;2022-07-23T12:29:52;31.00;61.00
45945;DHT22;31655;48.972;10.686;2022-07-23T12:32:19;30.80;61.20
45945;DHT22;31655;48.972;10.686;2022-07-23T12:34:45;30.60;61.90
45945;DHT22;31655;48.972;10.686;2022-07-23T12:37:47;30.20;61.80
45945;DHT22;31655;48.972;10.686;2022-07-23T12:42:52;29.90;63.20
45945;DHT22;31655;48.972;10.686;2022-07-23T12:45:18;30.20;63.30
45945;DHT22;31655;48.972;10.686;2022-07-23T12:50:33;30.10;63.60
45945;DHT22;31655;48.972;10.686;2022-07-23T12:53:22;30.40;62.70
45945;DHT22;31655;48.972;10.686;2022-07-23T12:55:50;30.60;61.80
45945;DHT22;31655;48.972;10.686;2022-07-23T12:58:18;30.20;62.20
45945;DHT22;31655;48.972;10.686;2022-07-23T13:01:01;30.20;62.80
45945;DHT22;31655;48.972;10.686;2022-07-23T13:03:28;30.20;63.00
45945;DHT22;31655;48.972;10.686;2022-07-23T13:05:54;29.80;63.40
45945;DHT22;31655;48.972;10.686;2022-07-23T13:08:21;29.50;63.70
45945;DHT22;31655;48.972;10.686;2022-07-23T13:10:46;29.60;64.50
45945;DHT22;31655;48.972;10.686;2022-07-23T13:13:21;29.90;64.60
45945;DHT22;31655;48.972;10.686;2022-07-23T13:15:47;29.60;64.20
45945;DHT22;31655;48.972;10.686;2022-07-23T13:18:13;29.70;65.30
45945;DHT22;31655;48.972;10.686;2022-07-23T13:20:38;30.10;64.80
45945;DHT22;31655;48.972;10.686;2022-07-23T13:23:07;30.30;64.00
45945;DHT22;31655;48.972;10.686;2022-07-23T13:25:33;30.40;63.80
45945;DHT22;31655;48.972;10.686;2022-07-23T13:27:59;30.40;63.90
45945;DHT22;31655;48.972;10.686;2022-07-23T13:30:25;30.30;64.10
45945;DHT22;31655;48.972;10.686;2022-07-23T13:32:51;30.00;64.50
45945;DHT22;31655;48.972;10.686;2022-07-23T13:35:16;29.80;64.60
45945;DHT22;31655;48.972;10.686;2022-07-23T13:37:42;29.80;64.80
45945;DHT22;31655;48.972;10.686;2022-07-23T13:40:08;30.00;64.40
45945;DHT22;31655;48.972;10.686;2022-07-23T13:42:34;30.20;64.60
45945;DHT22;31655;48.972;10.686;2022-07-23T13:44:59;30.40;64.80
45945;DHT22;31655;48.972;10.686;2022-07-23T13:47:25;30.40;64.10
45945;DHT22;31655;48.972;10.686;2022-07-23T13:49:51;30.60;63.90
45945;DHT22;31655;48.972;10.686;2022-07-23T13:52:16;30.70;63.60
45945;DHT22;31655;48.972;10.686;2022-07-23T13:54:42;31.00;63.10
45945;DHT22;31655;48.972;10.686;2022-07-23T13:57:07;31.00;62.30
45945;DHT22;31655;48.972;10.686;2022-07-23T13:59:35;30.90;62.70
45945;DHT22;31655;48.972;10.686;2022-07-23T14:02:02;31.00;62.30
45945;DHT22;31655;48.972;10.686;2022-07-23T14:04:27;31.00;61.50
45945;DHT22;31655;48.972;10.686;2022-07-23T14:06:53;30.80;61.50
45945;DHT22;31655;48.972;10.686;2022-07-23T14:09:18;30.70;61.50
45945;DHT22;31655;48.972;10.686;2022-07-23T14:11:44;30.80;61.10
45945;DHT22;31655;48.972;10.686;2022-07-23T14:14:10;30.80;60.70
45945;DHT22;31655;48.972;10.686;2022-07-23T14:16:35;30.60;60.80
45945;DHT22;31655;48.972;10.686;2022-07-23T14:19:01;30.50;61.70
45945;DHT22;31655;48.972;10.686;2022-07-23T14:21:27;30.20;62.40
45945;DHT22;31655;48.972;10.686;2022-07-23T14:23:53;30.20;60.90
45945;DHT22;31655;48.972;10.686;2022-07-23T14:26:19;30.10;60.00
45945;DHT22;31655;48.972;10.686;2022-07-23T14:28:45;29.90;59.90
45945;DHT22;31655;48.972;10.686;2022-07-23T14:31:10;29.90;60.40
45945;DHT22;31655;48.972;10.686;2022-07-23T14:33:36;29.90;60.50
45945;DHT22;31655;48.972;10.686;2022-07-23T14:36:02;29.70;60.70
45945;DHT22;31655;48.972;10.686;2022-07-23T14:38:27;29.50;60.20
45945;DHT22;31655;48.972;10.686;2022-07-23T14:40:56;29.70;59.70
45945;DHT22;31655;48.972;10.686;2022-07-23T14:43:21;29.90;61.10
45945;DHT22;31655;48.972;10.686;2022-07-23T14:45:47;30.10;59.90
45945;DHT22;31655;48.972;10.686;2022-07-23T14:48:12;30.00;59.90
45945;DHT22;31655;48.972;10.686;2022-07-23T14:50:38;29.80;61.20
45945;DHT22;31655;48.972;10.686;2022-07-23T14:53:03;29.70;62.00
45945;DHT22;31655;48.972;10.686;2022-07-23T14:55:31;29.80;62.40
45945;DHT22;31655;48.972;10.686;2022-07-23T14:57:56;29.90;61.10
45945;DHT22;31655;48.972;10.686;2022-07-23T15:00:22;30.00;59.30
45945;DHT22;31655;48.972;10.686;2022-07-23T15:02:47;29.90;60.90
45945;DHT22;31655;48.972;10.686;2022-07-23T15:05:13;29.70;59.70
45945;DHT22;31655;48.972;10.686;2022-07-23T15:07:39;29.90;59.80
45945;DHT22;31655;48.972;10.686;2022-07-23T15:10:05;29.70;59.50
45945;DHT22;31655;48.972;10.686;2022-07-23T15:12:30;29.70;59.80
45945;DHT22;31655;48.972;10.686;2022-07-23T15:14:56;29.60;60.30
45945;DHT22;31655;48.972;10.686;2022-07-23T15:17:22;29.80;59.90
45945;DHT22;31655;48.972;10.686;2022-07-23T15:19:47;29.80;59.30
45945;DHT22;31655;48.972;10.686;2022-07-23T15:22:13;29.60;58.70
45945;DHT22;31655;48.972;10.686;2022-07-23T15:24:39;29.30;58.60
45945;DHT22;31655;48.972;10.686;2022-07-23T15:27:04;29.40;59.20
45945;DHT22;31655;48.972;10.686;2022-07-23T15:29:30;29.30;59.80
45945;DHT22;31655;48.972;10.686;2022-07-23T15:31:56;29.10;59.60
45945;DHT22;31655;48.972;10.686;2022-07-23T15:34:21;29.20;60.60
45945;DHT22;31655;48.972;10.686;2022-07-23T15:36:47;29.20;60.20
45945;DHT22;31655;48.972;10.686;2022-07-23T15:39:12;29.20;60.60
45945;DHT22;31655;48.972;10.686;2022-07-23T15:41:38;29.10;60.40
45945;DHT22;31655;48.972;10.686;2022-07-23T15:44:04;29.10;60.80
45945;DHT22;31655;48.972;10.686;2022-07-23T15:46:29;28.90;60.90
45945;DHT22;31655;48.972;10.686;2022-07-23T15:48:55;28.80;61.90
45945;DHT22;31655;48.972;10.686;2022-07-23T15:51:21;28.90;62.30
45945;DHT22;31655;48.972;10.686;2022-07-23T15:53:46;29.10;63.00
45945;DHT22;31655;48.972;10.686;2022-07-23T15:56:12;29.30;62.90
45945;DHT22;31655;48.972;10.686;2022-07-23T15:58:38;29.10;63.10
45945;DHT22;31655;48.972;10.686;2022-07-23T16:01:04;29.20;63.00
45945;DHT22;31655;48.972;10.686;2022-07-23T16:03:35;29.20;63.30
45945;DHT22;31655;48.972;10.686;2022-07-23T16:06:03;29.30;63.50